sensor_id;sensor_type;location;lat;lon;timestamp;temperature;humidity
18450;DHT22;9354;50.194;7.690;2022-12-18T00:00:02;-6.90;99.90
18450;DHT22;9354;50.194;7.690;2022-12-18T00:02:30;-6.90;99.90
18450;DHT22;9354;50.194;7.690;2022-12-18T00:04:58;-6.90;99.90
18450;DHT22;9354;50.194;7.690;2022-12-18T00:07:28;-6.90;99.90
18450;DHT22;9354;50.194;7.690;2022-12-18T00:09:55;-6.90;99.90
18450;DHT22;9354;50.194;7.690;2022-12-18T00:12:23;-6.80;99.90
18450;DHT22;9354;50.194;7.690;2022-12-18T00:14:51;-6.80;99.90
18450;DHT22;9354;50.194;7.690;2022-12-18T00:17:19;-6.70;99.90
18450;DHT22;9354;50.194;7.690;2022-12-18T00:19:46;-6.80;99.90
18450;DHT22;9354;50.194;7.690;2022-12-18T00:22:14;-6.70;99.90
18450;DHT22;9354;50.194;7.690;2022-12-18T00:24:44;-6.70;99.90
18450;DHT22;9354;50.194;7.690;2022-12-18T00:27:11;-6.70;99.90
18450;DHT22;9354;50.194;7.690;2022-12-18T00:29:39;-6.70;99.90
18450;DHT22;9354;50.194;7.690;2022-12-18T00:32:07;-6.70;99.90
18450;DHT22;9354;50.194;7.690;2022-12-18T00:34:35;-6.70;99.90
18450;DHT22;9354;50.194;7.690;2022-12-18T00:37:02;-6.70;99.90
18450;DHT22;9354;50.194;7.690;2022-12-18T00:39:30;-6.70;99.90
18450;DHT22;9354;50.194;7.690;2022-12-18T00:41:57;-6.70;99.90
18450;DHT22;9354;50.194;7.690;2022-12-18T00:44:42;-6.60;99.90
18450;DHT22;9354;50.194;7.690;2022-12-18T00:47:11;-6.70;99.90
18450;DHT22;9354;50.194;7.690;2022-12-18T00:49:38;-6.70;99.90
18450;DHT22;9354;50.194;7.690;2022-12-18T00:52:06;-6.70;99.90
18450;DHT22;9354;50.194;7.690;2022-12-18T00:54:33;-6.70;99.90
18450;DHT22;9354;50.194;7.690;2022-12-18T00:57:00;-6.70;99.90
18450;DHT22;9354;50.194;7.690;2022-12-18T00:59:28;-6.70;99.90
18450;DHT22;9354;50.194;7.690;2022-12-18T01:01:56;-6.80;99.90
18450;DHT22;9354;50.194;7.690;2022-12-18T01:04:25;-6.90;99.90
18450;DHT22;9354;50.194;7.690;2022-12-18T01:06:52;-6.90;99.90
18450;DHT22;9354;50.194;7.690;2022-12-18T01:09:20;-6.90;99.90
18450;DHT22;9354;50.194;7.690;2022-12-18T01:11:47;-6.90;99.90
18450;DHT22;9354;50.194;7.690;2022-12-18T01:14:14;-6.90;99.90
18450;DHT22;9354;50.194;7.690;2022-12-18T01:16:42;-7.00;99.90
18450;DHT22;9354;50.194;7.690;2022-12-18T01:19:09;-7.10;99.90
18450;DHT22;9354;50.194;7.690;2022-12-18T01:21:38;-7.20;99.90
18450;DHT22;9354;50.194;7.690;2022-12-18T01:24:05;-7.20;99.90
18450;DHT22;9354;50.194;7.690;2022-12-18T01:26:33;-7.20;99.90
18450;DHT22;9354;50.194;7.690;2022-12-18T01:29:00;-7.20;99.90
18450;DHT22;9354;50.194;7.690;2022-12-18T01:31:30;-7.20;99.90
18450;DHT22;9354;50.194;7.690;2022-12-18T01:34:00;-7.30;99.90
18450;DHT22;9354;50.194;7.690;2022-12-18T01:36:30;-7.30;99.90
18450;DHT22;9354;50.194;7.690;2022-12-18T01:39:01;-7.30;99.90
18450;DHT22;9354;50.194;7.690;2022-12-18T01:41:31;-7.30;99.90
18450;DHT22;9354;50.194;7.690;2022-12-18T01:44:57;-7.40;99.90
18450;DHT22;9354;50.194;7.690;2022-12-18T01:47:28;-7.40;99.90
18450;DHT22;9354;50.194;7.690;2022-12-18T01:49:57;-7.40;99.90
18450;DHT22;9354;50.194;7.690;2022-12-18T01:52:27;-7.40;99.90
18450;DHT22;9354;50.194;7.690;2022-12-18T01:54:57;-7.50;99.90
18450;DHT22;9354;50.194;7.690;2022-12-18T01:57:25;-7.50;99.90
18450;DHT22;9354;50.194;7.690;2022-12-18T01:59:55;-7.50;99.90
18450;DHT22;9354;50.194;7.690;2022-12-18T02:02:23;-7.60;99.90
18450;DHT22;9354;50.194;7.690;2022-12-18T02:04:51;-7.60;99.90
18450;DHT22;9354;50.194;7.690;2022-12-18T02:07:25;-7.70;99.90
18450;DHT22;9354;50.194;7.690;2022-12-18T02:10:01;-7.80;99.90
18450;DHT22;9354;50.194;7.690;2022-12-18T02:12:37;-7.80;99.90
18450;DHT22;9354;50.194;7.690;2022-12-18T02:15:13;-7.80;99.90
18450;DHT22;9354;50.194;7.690;2022-12-18T02:17:45;-7.90;99.90
18450;DHT22;9354;50.194;7.690;2022-12-18T02:20:20;-8.00;99.90
18450;DHT22;9354;50.194;7.690;2022-12-18T02:23:03;-8.10;99.90
18450;DHT22;9354;50.194;7.690;2022-12-18T02:28:17;-8.20;99.90
18450;DHT22;9354;50.194;7.690;2022-12-18T02:30:48;-8.10;99.90
18450;DHT22;9354;50.194;7.690;2022-12-18T02:33:17;-8.10;99.90
18450;DHT22;9354;50.194;7.690;2022-12-18T02:35:47;-8.00;99.90
18450;DHT22;9354;50.194;7.690;2022-12-18T02:38:16;-8.00;99.90
18450;DHT22;9354;50.194;7.690;2022-12-18T02:40:44;-8.00;99.90
18450;DHT22;9354;50.194;7.690;2022-12-18T02:43:16;-8.00;99.90
18450;DHT22;9354;50.194;7.690;2022-12-18T02:45:48;-8.10;99.90
18450;DHT22;9354;50.194;7.690;2022-12-18T02:48:16;-8.10;99.90
18450;DHT22;9354;50.194;7.690;2022-12-18T02:50:47;-8.20;99.90
18450;DHT22;9354;50.194;7.690;2022-12-18T02:53:26;-8.20;99.90
18450;DHT22;9354;50.194;7.690;2022-12-18T02:56:03;-8.30;99.90
18450;DHT22;9354;50.194;7.690;2022-12-18T02:58:41;-8.30;99.90
18450;DHT22;9354;50.194;7.690;2022-12-18T03:01:13;-8.30;99.90
18450;DHT22;9354;50.194;7.690;2022-12-18T03:03:47;-8.30;99.90
18450;DHT22;9354;50.194;7.690;2022-12-18T03:06:23;-8.30;99.90
18450;DHT22;9354;50.194;7.690;2022-12-18T03:08:56;-8.30;99.90
18450;DHT22;9354;50.194;7.690;2022-12-18T03:11:27;-8.30;99.90
18450;DHT22;9354;50.194;7.690;2022-12-18T03:14:16;-8.20;99.90
18450;DHT22;9354;50.194;7.690;2022-12-18T03:16:46;-8.10;99.90
18450;DHT22;9354;50.194;7.690;2022-12-18T03:19:17;-8.00;99.90
18450;DHT22;9354;50.194;7.690;2022-12-18T03:21:47;-7.90;99.90
18450;DHT22;9354;50.194;7.690;2022-12-18T03:24:17;-7.80;99.90
18450;DHT22;9354;50.194;7.690;2022-12-18T03:26:47;-7.70;99.90
18450;DHT22;9354;50.194;7.690;2022-12-18T03:29:20;-7.70;99.90
18450;DHT22;9354;50.194;7.690;2022-12-18T03:31:51;-7.60;99.90
18450;DHT22;9354;50.194;7.690;2022-12-18T03:34:24;-7.60;99.90
18450;DHT22;9354;50.194;7.690;2022-12-18T03:36:53;-7.50;99.90
18450;DHT22;9354;50.194;7.690;2022-12-18T03:39:21;-7.50;99.90
18450;DHT22;9354;50.194;7.690;2022-12-18T03:41:52;-7.50;99.90
18450;DHT22;9354;50.194;7.690;2022-12-18T03:44:29;-7.50;99.90
18450;DHT22;9354;50.194;7.690;2022-12-18T03:47:05;-7.50;99.90
18450;DHT22;9354;50.194;7.690;2022-12-18T03:49:36;-7.60;99.90
18450;DHT22;9354;50.194;7.690;2022-12-18T03:52:09;-7.60;99.90
18450;DHT22;9354;50.194;7.690;2022-12-18T03:54:39;-7.60;99.90
18450;DHT22;9354;50.194;7.690;2022-12-18T03:57:11;-7.60;99.90
18450;DHT22;9354;50.194;7.690;2022-12-18T03:59:43;-7.60;99.90
18450;DHT22;9354;50.194;7.690;2022-12-18T04:02:11;-7.60;99.90
18450;DHT22;9354;50.194;7.690;2022-12-18T04:04:40;-7.70;99.90
18450;DHT22;9354;50.194;7.690;2022-12-18T04:07:10;-7.80;99.90
18450;DHT22;9354;50.194;7.690;2022-12-18T04:09:39;-8.00;99.90
18450;DHT22;9354;50.194;7.690;2022-12-18T04:12:08;-8.00;99.90
18450;DHT22;9354;50.194;7.690;2022-12-18T04:14:36;-8.00;99.90
18450;DHT22;9354;50.194;7.690;2022-12-18T04:17:05;-8.10;99.90
18450;DHT22;9354;50.194;7.690;2022-12-18T04:19:32;-8.10;99.90
18450;DHT22;9354;50.194;7.690;2022-12-18T04:22:00;-8.20;99.90
18450;DHT22;9354;50.194;7.690;2022-12-18T04:24:27;-8.20;99.90
18450;DHT22;9354;50.194;7.690;2022-12-18T04:26:54;-8.20;99.90
18450;DHT22;9354;50.194;7.690;2022-12-18T04:29:22;-8.10;99.90
18450;DHT22;9354;50.194;7.690;2022-12-18T04:31:49;-8.10;99.90
18450;DHT22;9354;50.194;7.690;2022-12-18T04:34:18;-8.00;99.90
18450;DHT22;9354;50.194;7.690;2022-12-18T04:36:45;-8.00;99.90
18450;DHT22;9354;50.194;7.690;2022-12-18T04:39:13;-8.00;99.90
18450;DHT22;9354;50.194;7.690;2022-12-18T04:41:43;-8.00;99.90
18450;DHT22;9354;50.194;7.690;2022-12-18T04:44:10;-8.00;99.90
18450;DHT22;9354;50.194;7.690;2022-12-18T04:46:38;-7.90;99.90
18450;DHT22;9354;50.194;7.690;2022-12-18T04:49:05;-7.90;99.90
18450;DHT22;9354;50.194;7.690;2022-12-18T04:51:34;-7.90;99.90
18450;DHT22;9354;50.194;7.690;2022-12-18T04:54:01;-7.90;99.90
18450;DHT22;9354;50.194;7.690;2022-12-18T04:56:30;-8.00;99.90
18450;DHT22;9354;50.194;7.690;2022-12-18T04:58:58;-8.00;99.90
18450;DHT22;9354;50.194;7.690;2022-12-18T05:01:25;-8.10;99.90
18450;DHT22;9354;50.194;7.690;2022-12-18T05:03:53;-8.00;99.90
18450;DHT22;9354;50.194;7.690;2022-12-18T05:06:20;-8.00;99.90
18450;DHT22;9354;50.194;7.690;2022-12-18T05:08:49;-8.00;99.90
18450;DHT22;9354;50.194;7.690;2022-12-18T05:11:16;-7.90;99.90
18450;DHT22;9354;50.194;7.690;2022-12-18T05:13:44;-7.90;99.90
18450;DHT22;9354;50.194;7.690;2022-12-18T05:16:13;-7.90;99.90
18450;DHT22;9354;50.194;7.690;2022-12-18T05:18:41;-7.90;99.90
18450;DHT22;9354;50.194;7.690;2022-12-18T05:21:08;-7.90;99.90
18450;DHT22;9354;50.194;7.690;2022-12-18T05:23:36;-7.90;99.90
18450;DHT22;9354;50.194;7.690;2022-12-18T05:26:06;-7.80;99.90
18450;DHT22;9354;50.194;7.690;2022-12-18T05:28:35;-7.80;99.90
18450;DHT22;9354;50.194;7.690;2022-12-18T05:31:03;-7.70;99.90
18450;DHT22;9354;50.194;7.690;2022-12-18T05:33:32;-7.80;99.90
18450;DHT22;9354;50.194;7.690;2022-12-18T05:36:01;-7.80;99.90
18450;DHT22;9354;50.194;7.690;2022-12-18T05:38:29;-7.80;99.90
18450;DHT22;9354;50.194;7.690;2022-12-18T05:40:58;-7.80;99.90
18450;DHT22;9354;50.194;7.690;2022-12-18T05:43:29;-7.80;99.90
18450;DHT22;9354;50.194;7.690;2022-12-18T05:45:56;-7.90;99.90
18450;DHT22;9354;50.194;7.690;2022-12-18T05:48:24;-7.90;99.90
18450;DHT22;9354;50.194;7.690;2022-12-18T05:50:51;-7.90;99.90
18450;DHT22;9354;50.194;7.690;2022-12-18T05:53:20;-7.90;99.90
18450;DHT22;9354;50.194;7.690;2022-12-18T05:55:48;-7.90;99.90
18450;DHT22;9354;50.194;7.690;2022-12-18T05:58:15;-7.90;99.90
18450;DHT22;9354;50.194;7.690;2022-12-18T06:00:45;-7.90;99.90
18450;DHT22;9354;50.194;7.690;2022-12-18T06:03:13;-7.90;99.90
18450;DHT22;9354;50.194;7.690;2022-12-18T06:05:42;-7.90;99.90
18450;DHT22;9354;50.194;7.690;2022-12-18T06:08:11;-7.90;99.90
18450;DHT22;9354;50.194;7.690;2022-12-18T06:10:38;-7.90;99.90
18450;DHT22;9354;50.194;7.690;2022-12-18T06:13:06;-7.90;99.90
18450;DHT22;9354;50.194;7.690;2022-12-18T06:15:36;-7.90;99.90
18450;DHT22;9354;50.194;7.690;2022-12-18T06:18:05;-7.90;99.90
18450;DHT22;9354;50.194;7.690;2022-12-18T06:20:32;-7.90;99.90
18450;DHT22;9354;50.194;7.690;2022-12-18T06:23:02;-7.90;99.90
18450;DHT22;9354;50.194;7.690;2022-12-18T06:25:30;-7.90;99.90
18450;DHT22;9354;50.194;7.690;2022-12-18T06:27:57;-7.80;99.90
18450;DHT22;9354;50.194;7.690;2022-12-18T06:30:24;-7.80;99.90
18450;DHT22;9354;50.194;7.690;2022-12-18T06:32:52;-7.80;99.90
18450;DHT22;9354;50.194;7.690;2022-12-18T06:35:21;-7.80;99.90
18450;DHT22;9354;50.194;7.690;2022-12-18T06:37:48;-7.80;99.90
18450;DHT22;9354;50.194;7.690;2022-12-18T06:40:15;-7.70;99.90
18450;DHT22;9354;50.194;7.690;2022-12-18T06:42:43;-7.70;99.90
18450;DHT22;9354;50.194;7.690;2022-12-18T06:45:10;-7.60;99.90
18450;DHT22;9354;50.194;7.690;2022-12-18T06:47:41;-7.60;99.90
18450;DHT22;9354;50.194;7.690;2022-12-18T06:50:08;-7.60;99.90
18450;DHT22;9354;50.194;7.690;2022-12-18T06:52:37;-7.60;99.90
18450;DHT22;9354;50.194;7.690;2022-12-18T06:55:07;-7.60;99.90
18450;DHT22;9354;50.194;7.690;2022-12-18T06:57:37;-7.60;99.90
18450;DHT22;9354;50.194;7.690;2022-12-18T07:00:06;-7.70;99.90
18450;DHT22;9354;50.194;7.690;2022-12-18T07:02:34;-7.70;99.90
18450;DHT22;9354;50.194;7.690;2022-12-18T07:05:01;-7.70;99.90
18450;DHT22;9354;50.194;7.690;2022-12-18T07:07:29;-7.60;99.90
18450;DHT22;9354;50.194;7.690;2022-12-18T07:09:58;-7.60;99.90
18450;DHT22;9354;50.194;7.690;2022-12-18T07:12:26;-7.60;99.90
18450;DHT22;9354;50.194;7.690;2022-12-18T07:14:53;-7.50;99.90
18450;DHT22;9354;50.194;7.690;2022-12-18T07:17:21;-7.50;99.90
18450;DHT22;9354;50.194;7.690;2022-12-18T07:19:48;-7.50;99.90
18450;DHT22;9354;50.194;7.690;2022-12-18T07:22:16;-7.50;99.90
18450;DHT22;9354;50.194;7.690;2022-12-18T07:24:43;-7.50;99.90
18450;DHT22;9354;50.194;7.690;2022-12-18T07:27:12;-7.50;99.90
18450;DHT22;9354;50.194;7.690;2022-12-18T07:29:39;-7.50;99.90
18450;DHT22;9354;50.194;7.690;2022-12-18T07:32:06;-7.50;99.90
18450;DHT22;9354;50.194;7.690;2022-12-18T07:34:34;-7.50;99.90
18450;DHT22;9354;50.194;7.690;2022-12-18T07:37:02;-7.50;99.90
18450;DHT22;9354;50.194;7.690;2022-12-18T07:39:29;-7.50;99.90
18450;DHT22;9354;50.194;7.690;2022-12-18T07:41:56;-7.40;99.90
18450;DHT22;9354;50.194;7.690;2022-12-18T07:44:43;-7.40;99.90
18450;DHT22;9354;50.194;7.690;2022-12-18T07:47:10;-7.40;99.90
18450;DHT22;9354;50.194;7.690;2022-12-18T07:49:37;-7.40;99.90
18450;DHT22;9354;50.194;7.690;2022-12-18T07:52:05;-7.40;99.90
18450;DHT22;9354;50.194;7.690;2022-12-18T07:54:32;-7.40;99.90
18450;DHT22;9354;50.194;7.690;2022-12-18T07:57:00;-7.40;99.90
18450;DHT22;9354;50.194;7.690;2022-12-18T07:59:27;-7.40;99.90
18450;DHT22;9354;50.194;7.690;2022-12-18T08:01:56;-7.30;99.90
18450;DHT22;9354;50.194;7.690;2022-12-18T08:04:23;-7.20;99.90
18450;DHT22;9354;50.194;7.690;2022-12-18T08:06:51;-7.20;99.90
18450;DHT22;9354;50.194;7.690;2022-12-18T08:09:18;-7.20;99.90
18450;DHT22;9354;50.194;7.690;2022-12-18T08:11:46;-7.10;99.90
18450;DHT22;9354;50.194;7.690;2022-12-18T08:14:13;-7.10;99.90
18450;DHT22;9354;50.194;7.690;2022-12-18T08:16:40;-7.10;99.90
18450;DHT22;9354;50.194;7.690;2022-12-18T08:19:09;-7.00;99.90
18450;DHT22;9354;50.194;7.690;2022-12-18T08:21:37;-7.00;99.90
18450;DHT22;9354;50.194;7.690;2022-12-18T08:24:09;-6.90;99.90
18450;DHT22;9354;50.194;7.690;2022-12-18T08:26:36;-6.80;99.90
18450;DHT22;9354;50.194;7.690;2022-12-18T08:29:04;-6.70;99.90
18450;DHT22;9354;50.194;7.690;2022-12-18T08:31:31;-6.60;99.90
18450;DHT22;9354;50.194;7.690;2022-12-18T08:33:58;-6.50;99.90
18450;DHT22;9354;50.194;7.690;2022-12-18T08:36:27;-6.30;99.90
18450;DHT22;9354;50.194;7.690;2022-12-18T08:38:55;-6.10;99.90
18450;DHT22;9354;50.194;7.690;2022-12-18T08:41:23;-6.00;99.90
18450;DHT22;9354;50.194;7.690;2022-12-18T08:43:50;-5.90;99.90
18450;DHT22;9354;50.194;7.690;2022-12-18T08:46:37;-5.80;99.90
18450;DHT22;9354;50.194;7.690;2022-12-18T08:49:05;-5.60;99.90
18450;DHT22;9354;50.194;7.690;2022-12-18T08:51:35;-5.40;99.90
18450;DHT22;9354;50.194;7.690;2022-12-18T08:54:03;-5.30;99.90
18450;DHT22;9354;50.194;7.690;2022-12-18T08:56:31;-5.20;99.90
18450;DHT22;9354;50.194;7.690;2022-12-18T08:58:59;-5.10;99.90
18450;DHT22;9354;50.194;7.690;2022-12-18T09:01:26;-5.00;99.90
18450;DHT22;9354;50.194;7.690;2022-12-18T09:03:54;-5.00;99.90
18450;DHT22;9354;50.194;7.690;2022-12-18T09:06:22;-5.00;99.90
18450;DHT22;9354;50.194;7.690;2022-12-18T09:08:51;-4.90;99.90
18450;DHT22;9354;50.194;7.690;2022-12-18T09:11:21;-4.90;99.90
18450;DHT22;9354;50.194;7.690;2022-12-18T09:13:49;-4.80;99.90
18450;DHT22;9354;50.194;7.690;2022-12-18T09:16:17;-4.70;99.90
18450;DHT22;9354;50.194;7.690;2022-12-18T09:18:45;-4.60;99.90
18450;DHT22;9354;50.194;7.690;2022-12-18T09:21:14;-4.40;99.90
18450;DHT22;9354;50.194;7.690;2022-12-18T09:23:42;-4.10;99.90
18450;DHT22;9354;50.194;7.690;2022-12-18T09:26:11;-3.90;99.90
18450;DHT22;9354;50.194;7.690;2022-12-18T09:28:38;-3.80;99.90
18450;DHT22;9354;50.194;7.690;2022-12-18T09:31:07;-3.60;99.90
18450;DHT22;9354;50.194;7.690;2022-12-18T09:33:35;-3.40;99.90
18450;DHT22;9354;50.194;7.690;2022-12-18T09:36:04;-3.20;99.90
18450;DHT22;9354;50.194;7.690;2022-12-18T09:38:33;-3.20;99.90
18450;DHT22;9354;50.194;7.690;2022-12-18T09:41:05;-3.10;99.90
18450;DHT22;9354;50.194;7.690;2022-12-18T09:43:40;-3.20;99.90
18450;DHT22;9354;50.194;7.690;2022-12-18T09:46:10;-3.20;99.90
18450;DHT22;9354;50.194;7.690;2022-12-18T09:48:42;-3.20;99.90
18450;DHT22;9354;50.194;7.690;2022-12-18T09:51:14;-3.30;99.90
18450;DHT22;9354;50.194;7.690;2022-12-18T09:53:46;-3.30;99.90
18450;DHT22;9354;50.194;7.690;2022-12-18T09:56:17;-3.30;99.90
18450;DHT22;9354;50.194;7.690;2022-12-18T09:58:51;-3.30;99.90
18450;DHT22;9354;50.194;7.690;2022-12-18T10:01:22;-3.40;99.90
18450;DHT22;9354;50.194;7.690;2022-12-18T10:03:52;-3.50;99.90
18450;DHT22;9354;50.194;7.690;2022-12-18T10:06:25;-3.60;99.90
18450;DHT22;9354;50.194;7.690;2022-12-18T10:08:58;-3.70;99.90
18450;DHT22;9354;50.194;7.690;2022-12-18T10:11:37;-3.80;99.90
18450;DHT22;9354;50.194;7.690;2022-12-18T10:14:16;-3.80;99.90
18450;DHT22;9354;50.194;7.690;2022-12-18T10:16:55;-3.80;99.90
18450;DHT22;9354;50.194;7.690;2022-12-18T10:19:35;-3.90;99.90
18450;DHT22;9354;50.194;7.690;2022-12-18T10:22:20;-3.90;99.90
18450;DHT22;9354;50.194;7.690;2022-12-18T10:24:54;-3.80;99.90
18450;DHT22;9354;50.194;7.690;2022-12-18T10:27:25;-3.80;99.90
18450;DHT22;9354;50.194;7.690;2022-12-18T10:29:54;-3.80;99.90
18450;DHT22;9354;50.194;7.690;2022-12-18T10:32:23;-3.80;99.90
18450;DHT22;9354;50.194;7.690;2022-12-18T10:34:52;-3.80;99.90
18450;DHT22;9354;50.194;7.690;2022-12-18T10:37:22;-3.80;99.90
18450;DHT22;9354;50.194;7.690;2022-12-18T10:40:10;-3.70;99.90
18450;DHT22;9354;50.194;7.690;2022-12-18T10:42:39;-3.70;99.90
18450;DHT22;9354;50.194;7.690;2022-12-18T10:45:12;-3.60;99.90
18450;DHT22;9354;50.194;7.690;2022-12-18T10:47:45;-3.60;99.90
18450;DHT22;9354;50.194;7.690;2022-12-18T10:50:23;-3.50;99.90
18450;DHT22;9354;50.194;7.690;2022-12-18T10:52:55;-3.40;99.90
18450;DHT22;9354;50.194;7.690;2022-12-18T10:55:31;-3.40;99.90
18450;DHT22;9354;50.194;7.690;2022-12-18T10:58:15;-3.30;99.90
18450;DHT22;9354;50.194;7.690;2022-12-18T11:00:44;-3.30;99.90
18450;DHT22;9354;50.194;7.690;2022-12-18T11:03:31;-3.20;99.90
18450;DHT22;9354;50.194;7.690;2022-12-18T11:06:03;-3.20;99.90
18450;DHT22;9354;50.194;7.690;2022-12-18T11:08:31;-3.10;99.90
18450;DHT22;9354;50.194;7.690;2022-12-18T11:10:59;-3.10;99.90
18450;DHT22;9354;50.194;7.690;2022-12-18T11:13:29;-3.20;99.90
18450;DHT22;9354;50.194;7.690;2022-12-18T11:15:59;-3.20;99.90
18450;DHT22;9354;50.194;7.690;2022-12-18T11:18:28;-3.30;99.90
18450;DHT22;9354;50.194;7.690;2022-12-18T11:20:58;-3.40;99.90
18450;DHT22;9354;50.194;7.690;2022-12-18T11:23:26;-3.40;99.90
18450;DHT22;9354;50.194;7.690;2022-12-18T11:25:56;-3.50;99.90
18450;DHT22;9354;50.194;7.690;2022-12-18T11:28:36;-3.70;99.90
18450;DHT22;9354;50.194;7.690;2022-12-18T11:31:21;-3.80;99.90
18450;DHT22;9354;50.194;7.690;2022-12-18T11:34:01;-3.90;99.90
18450;DHT22;9354;50.194;7.690;2022-12-18T11:36:36;-4.00;99.90
18450;DHT22;9354;50.194;7.690;2022-12-18T11:39:12;-4.10;99.90
18450;DHT22;9354;50.194;7.690;2022-12-18T11:41:48;-4.20;99.90
18450;DHT22;9354;50.194;7.690;2022-12-18T11:44:41;-4.30;99.90
18450;DHT22;9354;50.194;7.690;2022-12-18T11:47:16;-4.30;99.90
18450;DHT22;9354;50.194;7.690;2022-12-18T11:49:49;-4.30;99.90
18450;DHT22;9354;50.194;7.690;2022-12-18T11:52:20;-4.30;99.90
18450;DHT22;9354;50.194;7.690;2022-12-18T11:54:51;-4.40;99.90
18450;DHT22;9354;50.194;7.690;2022-12-18T11:57:27;-4.40;99.90
18450;DHT22;9354;50.194;7.690;2022-12-18T12:00:02;-4.40;99.90
18450;DHT22;9354;50.194;7.690;2022-12-18T12:02:46;-4.50;99.90
18450;DHT22;9354;50.194;7.690;2022-12-18T12:05:35;-4.60;99.90
18450;DHT22;9354;50.194;7.690;2022-12-18T12:08:14;-4.60;99.90
18450;DHT22;9354;50.194;7.690;2022-12-18T12:10:52;-4.70;99.90
18450;DHT22;9354;50.194;7.690;2022-12-18T12:13:29;-4.80;99.90
18450;DHT22;9354;50.194;7.690;2022-12-18T12:16:10;-4.80;99.90
18450;DHT22;9354;50.194;7.690;2022-12-18T12:18:50;-4.80;99.90
18450;DHT22;9354;50.194;7.690;2022-12-18T12:21:28;-4.80;99.90
18450;DHT22;9354;50.194;7.690;2022-12-18T12:24:02;-4.80;99.90
18450;DHT22;9354;50.194;7.690;2022-12-18T12:26:35;-4.80;99.90
18450;DHT22;9354;50.194;7.690;2022-12-18T12:29:22;-4.80;99.90
18450;DHT22;9354;50.194;7.690;2022-12-18T12:31:58;-4.70;99.90
18450;DHT22;9354;50.194;7.690;2022-12-18T12:34:36;-4.70;99.90
18450;DHT22;9354;50.194;7.690;2022-12-18T12:37:19;-4.70;99.90
18450;DHT22;9354;50.194;7.690;2022-12-18T12:39:47;-4.70;99.90
18450;DHT22;9354;50.194;7.690;2022-12-18T12:42:20;-4.70;99.90
18450;DHT22;9354;50.194;7.690;2022-12-18T12:45:21;-4.70;99.90
18450;DHT22;9354;50.194;7.690;2022-12-18T12:47:50;-4.70;99.90
18450;DHT22;9354;50.194;7.690;2022-12-18T12:50:21;-4.70;99.90
18450;DHT22;9354;50.194;7.690;2022-12-18T12:52:52;-4.60;99.90
18450;DHT22;9354;50.194;7.690;2022-12-18T12:55:21;-4.60;99.90
18450;DHT22;9354;50.194;7.690;2022-12-18T12:57:58;-4.60;99.90
18450;DHT22;9354;50.194;7.690;2022-12-18T13:00:30;-4.60;99.90
18450;DHT22;9354;50.194;7.690;2022-12-18T13:03:06;-4.50;99.90
18450;DHT22;9354;50.194;7.690;2022-12-18T13:05:43;-4.50;99.90
18450;DHT22;9354;50.194;7.690;2022-12-18T13:08:22;-4.50;99.90
18450;DHT22;9354;50.194;7.690;2022-12-18T13:10:52;-4.50;99.90
18450;DHT22;9354;50.194;7.690;2022-12-18T13:13:51;-4.60;99.90
18450;DHT22;9354;50.194;7.690;2022-12-18T13:16:19;-4.50;99.90
18450;DHT22;9354;50.194;7.690;2022-12-18T13:18:51;-4.50;99.90
18450;DHT22;9354;50.194;7.690;2022-12-18T13:21:26;-4.40;99.90
18450;DHT22;9354;50.194;7.690;2022-12-18T13:23:55;-4.40;99.90
18450;DHT22;9354;50.194;7.690;2022-12-18T13:26:32;-4.40;99.90
18450;DHT22;9354;50.194;7.690;2022-12-18T13:29:01;-4.30;99.90
18450;DHT22;9354;50.194;7.690;2022-12-18T13:34:36;-4.30;99.90
18450;DHT22;9354;50.194;7.690;2022-12-18T13:46:24;-4.30;99.90
18450;DHT22;9354;50.194;7.690;2022-12-18T13:48:59;-4.30;99.90
18450;DHT22;9354;50.194;7.690;2022-12-18T13:51:28;-4.30;99.90
18450;DHT22;9354;50.194;7.690;2022-12-18T13:53:58;-4.40;99.90
18450;DHT22;9354;50.194;7.690;2022-12-18T13:56:30;-4.40;99.90
18450;DHT22;9354;50.194;7.690;2022-12-18T13:59:15;-4.40;99.90
18450;DHT22;9354;50.194;7.690;2022-12-18T14:01:44;-4.40;99.90
18450;DHT22;9354;50.194;7.690;2022-12-18T14:04:17;-4.40;99.90
18450;DHT22;9354;50.194;7.690;2022-12-18T14:06:46;-4.30;99.90
18450;DHT22;9354;50.194;7.690;2022-12-18T14:09:15;-4.40;99.90
18450;DHT22;9354;50.194;7.690;2022-12-18T14:11:47;-4.40;99.90
18450;DHT22;9354;50.194;7.690;2022-12-18T14:14:17;-4.40;99.90
18450;DHT22;9354;50.194;7.690;2022-12-18T14:16:46;-4.40;99.90
18450;DHT22;9354;50.194;7.690;2022-12-18T14:19:16;-4.30;99.90
18450;DHT22;9354;50.194;7.690;2022-12-18T14:21:47;-4.30;99.90
18450;DHT22;9354;50.194;7.690;2022-12-18T14:24:20;-4.40;99.90
18450;DHT22;9354;50.194;7.690;2022-12-18T14:26:49;-4.40;99.90
18450;DHT22;9354;50.194;7.690;2022-12-18T14:29:25;-4.40;99.90
18450;DHT22;9354;50.194;7.690;2022-12-18T14:32:07;-4.40;99.90
18450;DHT22;9354;50.194;7.690;2022-12-18T14:34:36;-4.40;99.90
18450;DHT22;9354;50.194;7.690;2022-12-18T14:37:04;-4.40;99.90
18450;DHT22;9354;50.194;7.690;2022-12-18T14:39:31;-4.50;99.90
18450;DHT22;9354;50.194;7.690;2022-12-18T14:41:58;-4.50;99.90
18450;DHT22;9354;50.194;7.690;2022-12-18T14:44:27;-4.50;99.90
18450;DHT22;9354;50.194;7.690;2022-12-18T14:46:55;-4.50;99.90
18450;DHT22;9354;50.194;7.690;2022-12-18T14:49:26;-4.50;99.90
18450;DHT22;9354;50.194;7.690;2022-12-18T14:51:55;-4.60;99.90
18450;DHT22;9354;50.194;7.690;2022-12-18T14:54:24;-4.70;99.90
18450;DHT22;9354;50.194;7.690;2022-12-18T14:56:56;-4.70;99.90
18450;DHT22;9354;50.194;7.690;2022-12-18T14:59:27;-4.70;99.90
18450;DHT22;9354;50.194;7.690;2022-12-18T15:02:02;-4.80;99.90
18450;DHT22;9354;50.194;7.690;2022-12-18T15:04:32;-4.80;99.90
18450;DHT22;9354;50.194;7.690;2022-12-18T15:07:07;-4.80;99.90
18450;DHT22;9354;50.194;7.690;2022-12-18T15:09:37;-4.80;99.90
18450;DHT22;9354;50.194;7.690;2022-12-18T15:12:05;-4.90;99.90
18450;DHT22;9354;50.194;7.690;2022-12-18T15:14:38;-4.90;99.90
18450;DHT22;9354;50.194;7.690;2022-12-18T15:17:15;-4.90;99.90
18450;DHT22;9354;50.194;7.690;2022-12-18T15:19:44;-4.90;99.90
18450;DHT22;9354;50.194;7.690;2022-12-18T15:22:25;-4.90;99.90
18450;DHT22;9354;50.194;7.690;2022-12-18T15:24:53;-5.00;99.90
18450;DHT22;9354;50.194;7.690;2022-12-18T15:27:27;-5.10;99.90
18450;DHT22;9354;50.194;7.690;2022-12-18T15:30:19;-5.10;99.90
18450;DHT22;9354;50.194;7.690;2022-12-18T15:32:48;-5.10;99.90
18450;DHT22;9354;50.194;7.690;2022-12-18T15:35:18;-5.10;99.90
18450;DHT22;9354;50.194;7.690;2022-12-18T15:37:46;-5.10;99.90
18450;DHT22;9354;50.194;7.690;2022-12-18T15:40:15;-5.10;99.90
18450;DHT22;9354;50.194;7.690;2022-12-18T15:42:43;-5.10;99.90
18450;DHT22;9354;50.194;7.690;2022-12-18T15:45:29;-5.10;99.90
18450;DHT22;9354;50.194;7.690;2022-12-18T15:47:57;-5.10;99.90
18450;DHT22;9354;50.194;7.690;2022-12-18T15:50:24;-5.10;99.90
18450;DHT22;9354;50.194;7.690;2022-12-18T15:52:53;-5.10;99.90
18450;DHT22;9354;50.194;7.690;2022-12-18T15:55:22;-5.10;99.90
18450;DHT22;9354;50.194;7.690;2022-12-18T15:58:08;-5.10;99.90
18450;DHT22;9354;50.194;7.690;2022-12-18T16:00:39;-5.10;99.90
18450;DHT22;9354;50.194;7.690;2022-12-18T16:03:08;-5.00;99.90
18450;DHT22;9354;50.194;7.690;2022-12-18T16:05:35;-5.10;99.90
18450;DHT22;9354;50.194;7.690;2022-12-18T16:08:03;-5.00;99.90
18450;DHT22;9354;50.194;7.690;2022-12-18T16:10:30;-5.10;99.90
18450;DHT22;9354;50.194;7.690;2022-12-18T16:12:58;-5.00;99.90
18450;DHT22;9354;50.194;7.690;2022-12-18T16:15:25;-5.00;99.90
18450;DHT22;9354;50.194;7.690;2022-12-18T16:17:54;-5.00;99.90
18450;DHT22;9354;50.194;7.690;2022-12-18T16:20:22;-5.00;99.90
18450;DHT22;9354;50.194;7.690;2022-12-18T16:22:50;-5.00;99.90